createdAt,value
2022-09-28T00:01:07.187Z,92.81
2022-09-28T00:03:35.289Z,92.94
2022-09-28T00:06:04.324Z,92.97
2022-09-28T00:08:32.566Z,92.98
2022-09-28T00:11:00.543Z,92.95
2022-09-28T00:13:29.436Z,92.99
2022-09-28T00:16:03.402Z,92.89
2022-09-28T00:18:32.262Z,92.88
2022-09-28T00:21:01.544Z,92.97
2022-09-28T00:23:29.517Z,92.97
2022-09-28T00:25:57.595Z,93.00
2022-09-28T00:28:25.546Z,92.98
2022-09-28T00:30:56.427Z,93.04
2022-09-28T00:33:25.787Z,93.01
2022-09-28T00:35:57.562Z,92.87
2022-09-28T00:38:28.114Z,92.76
2022-09-28T00:40:56.652Z,92.62
2022-09-28T00:43:25.556Z,92.41
2022-09-28T00:45:58.034Z,92.24
2022-09-28T00:48:29.148Z,92.11
2022-09-28T00:50:57.655Z,91.89
2022-09-28T00:53:27.947Z,91.77
2022-09-28T00:55:56.763Z,91.68
2022-09-28T00:58:28.199Z,91.75
2022-09-28T01:00:57.177Z,91.70
2022-09-28T01:03:26.817Z,91.67
2022-09-28T01:05:56.549Z,91.63
2022-09-28T01:08:27.187Z,91.68
2022-09-28T01:10:55.319Z,91.67
2022-09-28T01:13:23.875Z,91.63
2022-09-28T01:15:59.098Z,91.67
2022-09-28T01:18:33.997Z,91.52
2022-09-28T01:21:03.905Z,91.35
2022-09-28T01:24:06.006Z,91.42
2022-09-28T01:26:48.944Z,91.39
2022-09-28T01:29:22.624Z,91.30
2022-09-28T01:31:55.666Z,91.37
2022-09-28T01:34:27.338Z,91.38
2022-09-28T01:36:57.241Z,91.27
2022-09-28T01:39:28.748Z,91.30
2022-09-28T01:42:01.050Z,91.25
2022-09-28T01:44:29.008Z,91.31
2022-09-28T01:47:03.505Z,91.36
2022-09-28T01:49:35.418Z,91.37
2022-09-28T01:52:08.121Z,91.32
2022-09-28T01:54:39.923Z,91.38
2022-09-28T01:57:11.681Z,91.29
2022-09-28T01:59:42.943Z,91.32
2022-09-28T02:02:15.028Z,91.27
2022-09-28T02:04:46.810Z,91.24
2022-09-28T02:07:18.357Z,91.17
2022-09-28T02:09:50.021Z,91.23
2022-09-28T02:12:24.899Z,91.19
2022-09-28T02:14:56.099Z,91.17
2022-09-28T02:17:24.044Z,91.21
2022-09-28T02:19:51.968Z,91.23
2022-09-28T02:22:26.307Z,91.28
2022-09-28T02:24:56.595Z,91.39
2022-09-28T02:27:33.160Z,91.53
2022-09-28T02:30:01.393Z,91.53
2022-09-28T02:32:29.945Z,91.62
2022-09-28T02:34:58.024Z,91.80
2022-09-28T02:37:26.467Z,91.84
2022-09-28T02:39:54.638Z,91.99
2022-09-28T02:42:25.910Z,92.13
2022-09-28T02:45:04.127Z,92.21
2022-09-28T02:47:48.979Z,92.36
2022-09-28T02:50:22.089Z,92.38
2022-09-28T02:53:02.714Z,92.50
2022-09-28T02:55:41.285Z,92.51
2022-09-28T02:58:20.349Z,92.67
2022-09-28T03:00:54.228Z,92.74
2022-09-28T03:03:43.535Z,92.82
2022-09-28T03:06:16.224Z,92.88
2022-09-28T03:08:46.889Z,92.94
2022-09-28T03:11:18.069Z,93.06
2022-09-28T03:13:46.332Z,93.12
2022-09-28T03:16:17.299Z,93.23
2022-09-28T03:18:45.729Z,93.23
2022-09-28T03:21:14.760Z,93.25
2022-09-28T03:23:43.469Z,93.20
2022-09-28T03:26:12.197Z,93.24
2022-09-28T03:28:40.541Z,93.27
2022-09-28T03:31:08.569Z,93.26
2022-09-28T03:33:37.923Z,93.30
2022-09-28T03:36:08.584Z,93.34
2022-09-28T03:38:36.586Z,93.46
2022-09-28T03:41:04.710Z,93.52
2022-09-28T03:43:32.630Z,93.65
2022-09-28T03:46:02.277Z,93.71
2022-09-28T03:48:33.000Z,93.73
2022-09-28T03:51:04.476Z,93.90
2022-09-28T03:53:34.103Z,93.99
2022-09-28T03:56:06.122Z,94.02
2022-09-28T03:58:34.029Z,94.08
2022-09-28T04:01:03.293Z,94.20
2022-09-28T04:03:31.559Z,94.15
2022-09-28T04:05:59.603Z,94.28
2022-09-28T04:08:28.850Z,94.27
2022-09-28T04:10:58.310Z,94.34
2022-09-28T04:13:26.496Z,94.32
2022-09-28T04:15:55.396Z,94.46
2022-09-28T04:18:24.161Z,94.62
2022-09-28T04:21:00.097Z,94.79
2022-09-28T04:23:29.710Z,94.95
2022-09-28T04:25:57.669Z,95.06
2022-09-28T04:28:43.588Z,95.17
2022-09-28T04:31:12.320Z,95.19
2022-09-28T04:33:40.328Z,95.26
2022-09-28T04:36:09.413Z,95.42
2022-09-28T04:38:52.407Z,95.60
2022-09-28T04:41:22.406Z,95.62
2022-09-28T04:43:50.946Z,95.73
2022-09-28T04:46:19.323Z,95.79
2022-09-28T04:48:47.462Z,95.87
2022-09-28T04:51:15.377Z,95.91
2022-09-28T04:53:44.609Z,95.92
2022-09-28T04:56:13.863Z,95.97
2022-09-28T04:58:41.932Z,96.21
2022-09-28T05:01:12.741Z,96.30
2022-09-28T05:03:40.913Z,96.30
2022-09-28T05:06:09.118Z,96.29
2022-09-28T05:08:37.077Z,96.28
2022-09-28T05:11:07.902Z,96.21
2022-09-28T05:13:41.743Z,96.14
2022-09-28T05:16:10.505Z,96.14
2022-09-28T05:18:38.555Z,96.12
2022-09-28T05:21:11.073Z,95.97
2022-09-28T05:23:39.120Z,96.02
2022-09-28T05:26:08.629Z,95.95
2022-09-28T05:28:36.589Z,96.01
2022-09-28T05:31:05.793Z,95.89
2022-09-28T05:33:34.115Z,95.77
2022-09-28T05:36:02.602Z,95.67
2022-09-28T05:38:30.966Z,95.57
2022-09-28T05:41:02.082Z,95.49
2022-09-28T05:43:34.080Z,95.46
2022-09-28T05:46:02.079Z,95.45
2022-09-28T05:48:30.492Z,95.41
2022-09-28T05:50:59.667Z,95.37
2022-09-28T05:53:27.584Z,95.32
2022-09-28T05:55:58.683Z,95.22
2022-09-28T05:58:26.641Z,95.15
2022-09-28T06:00:57.217Z,95.18
2022-09-28T06:03:25.947Z,95.11
2022-09-28T06:05:54.197Z,94.84
2022-09-28T06:08:22.235Z,94.62
2022-09-28T06:10:50.200Z,93.98
2022-09-28T06:13:18.205Z,93.16
2022-09-28T06:15:47.232Z,92.26
2022-09-28T06:18:16.503Z,90.94
2022-09-28T06:20:44.614Z,89.75
2022-09-28T06:23:13.851Z,88.73
2022-09-28T06:25:41.815Z,87.42
2022-09-28T06:28:11.774Z,85.72
2022-09-28T06:30:40.439Z,84.33
2022-09-28T06:33:11.328Z,82.78
2022-09-28T06:35:41.027Z,80.87
2022-09-28T06:38:09.481Z,79.52
2022-09-28T06:40:37.854Z,78.51
2022-09-28T06:43:10.220Z,76.82
2022-09-28T06:45:38.621Z,76.17
2022-09-28T06:48:07.103Z,75.50
2022-09-28T06:50:37.383Z,74.73
2022-09-28T06:53:09.389Z,74.16
2022-09-28T06:55:39.861Z,72.28
2022-09-28T06:58:11.152Z,70.71
2022-09-28T07:00:40.098Z,69.24
2022-09-28T07:03:11.283Z,69.08
2022-09-28T07:05:42.272Z,68.10
2022-09-28T07:08:11.961Z,67.32
2022-09-28T07:10:43.038Z,67.49
2022-09-28T07:13:30.322Z,67.50
2022-09-28T07:16:00.055Z,67.47
2022-09-28T07:18:30.026Z,67.86
2022-09-28T07:20:58.275Z,67.34
2022-09-28T07:23:41.121Z,69.05
2022-09-28T07:26:19.357Z,69.54
2022-09-28T07:28:49.753Z,70.25
2022-09-28T07:31:17.705Z,70.50
2022-09-28T07:33:47.122Z,71.35
2022-09-28T07:36:17.837Z,71.39
2022-09-28T07:38:47.381Z,72.67
2022-09-28T07:41:16.912Z,72.70
2022-09-28T07:43:44.923Z,73.17
2022-09-28T07:46:13.005Z,73.81
2022-09-28T07:48:42.140Z,74.44
2022-09-28T07:51:10.750Z,75.70
2022-09-28T07:53:39.066Z,75.44
2022-09-28T07:56:09.415Z,76.66
2022-09-28T07:58:38.806Z,76.77
2022-09-28T08:01:08.284Z,76.51
2022-09-28T08:03:36.438Z,76.95
2022-09-28T08:06:07.036Z,77.16
2022-09-28T08:08:35.767Z,77.55
2022-09-28T08:11:03.957Z,77.37
2022-09-28T08:13:33.185Z,77.65
2022-09-28T08:16:02.761Z,76.98
2022-09-28T08:18:32.303Z,77.08
2022-09-28T08:21:17.650Z,77.81
2022-09-28T08:23:45.634Z,78.09
2022-09-28T08:26:15.703Z,77.97
2022-09-28T08:28:47.642Z,77.71
2022-09-28T08:31:15.712Z,77.27
2022-09-28T08:33:43.691Z,77.47
2022-09-28T08:36:11.785Z,77.43
2022-09-28T08:38:39.741Z,76.35
2022-09-28T08:41:17.105Z,74.92
2022-09-28T08:44:01.057Z,74.87
2022-09-28T08:46:32.789Z,73.68
2022-09-28T08:49:24.945Z,73.55
2022-09-28T08:51:56.530Z,71.83
2022-09-28T08:54:30.313Z,71.19
2022-09-28T08:57:00.889Z,72.21
2022-09-28T08:59:41.687Z,71.96
2022-09-28T09:02:16.030Z,71.64
2022-09-28T09:04:44.729Z,70.49
2022-09-28T09:07:23.124Z,70.04
2022-09-28T09:09:58.251Z,69.41
2022-09-28T09:12:33.552Z,68.94
2022-09-28T09:15:19.971Z,68.93
2022-09-28T09:17:52.785Z,68.02
2022-09-28T09:20:27.035Z,69.33
2022-09-28T09:23:00.666Z,68.96
2022-09-28T09:25:30.152Z,68.78
2022-09-28T09:28:15.175Z,69.86
2022-09-28T09:30:51.473Z,70.08
2022-09-28T09:33:43.748Z,69.35
2022-09-28T09:36:19.693Z,70.72
2022-09-28T09:38:58.066Z,69.44
2022-09-28T09:41:37.336Z,69.92
2022-09-28T09:44:29.267Z,70.20
2022-09-28T09:47:02.063Z,71.17
2022-09-28T09:49:34.317Z,72.12
2022-09-28T09:52:07.125Z,71.69
2022-09-28T09:54:38.845Z,72.21
2022-09-28T09:57:11.326Z,72.46
2022-09-28T09:59:41.332Z,73.76
2022-09-28T10:02:24.599Z,74.72
2022-09-28T10:04:55.785Z,73.49
2022-09-28T10:07:26.660Z,74.03
2022-09-28T10:09:58.244Z,73.13
2022-09-28T10:12:26.353Z,73.74
2022-09-28T10:14:56.084Z,74.33
2022-09-28T10:17:27.638Z,75.52
2022-09-28T10:19:56.883Z,75.74
2022-09-28T10:22:28.021Z,75.53
2022-09-28T10:24:57.517Z,75.84
2022-09-28T10:27:29.188Z,76.50
2022-09-28T10:30:01.784Z,77.38
2022-09-28T10:32:38.628Z,78.31
2022-09-28T10:35:32.280Z,79.33
2022-09-28T10:38:03.269Z,79.85
2022-09-28T10:40:40.376Z,79.32
2022-09-28T10:43:19.008Z,80.04
2022-09-28T10:45:47.177Z,79.77
2022-09-28T10:48:20.446Z,80.17
2022-09-28T10:51:02.745Z,80.46
2022-09-28T10:53:30.875Z,81.21
2022-09-28T10:56:02.497Z,80.61
2022-09-28T10:58:38.005Z,81.24
2022-09-28T11:01:11.482Z,81.73
2022-09-28T11:03:50.560Z,82.01
2022-09-28T11:06:25.248Z,82.63
2022-09-28T11:08:54.633Z,82.96
2022-09-28T11:11:23.361Z,83.10
2022-09-28T11:13:52.615Z,83.45
2022-09-28T11:16:29.376Z,82.85
2022-09-28T11:19:00.090Z,82.47
2022-09-28T11:21:31.120Z,84.74
2022-09-28T11:24:05.747Z,84.66
2022-09-28T11:26:42.192Z,85.00
2022-09-28T11:29:21.391Z,84.28
2022-09-28T11:31:49.532Z,83.84
2022-09-28T11:34:31.045Z,84.25
2022-09-28T11:37:27.303Z,84.03
2022-09-28T11:40:02.716Z,84.05
2022-09-28T11:42:39.917Z,83.62
2022-09-28T11:45:20.701Z,83.13
2022-09-28T11:47:53.198Z,83.14
2022-09-28T11:50:30.625Z,82.89
2022-09-28T11:53:04.378Z,83.38
2022-09-28T11:55:36.154Z,83.49
2022-09-28T11:58:07.377Z,83.19
2022-09-28T12:00:37.916Z,84.15
2022-09-28T12:03:09.228Z,83.28
2022-09-28T12:05:43.498Z,82.97
2022-09-28T12:08:16.837Z,83.20
2022-09-28T12:10:48.467Z,82.93
2022-09-28T12:13:20.459Z,82.45
2022-09-28T12:18:43.441Z,81.72
2022-09-28T12:21:24.907Z,81.44
2022-09-28T12:23:56.010Z,80.93
2022-09-28T12:26:32.504Z,81.40
2022-09-28T12:29:07.509Z,81.22
2022-09-28T12:31:39.303Z,81.89
2022-09-28T12:34:07.330Z,81.74
2022-09-28T12:36:44.962Z,81.21
2022-09-28T12:39:53.442Z,80.61
2022-09-28T12:42:30.080Z,79.58
2022-09-28T12:45:21.273Z,79.57
2022-09-28T12:48:09.353Z,78.31
2022-09-28T12:50:46.444Z,78.29
2022-09-28T12:53:33.576Z,76.22
2022-09-28T12:56:03.427Z,76.30
2022-09-28T12:58:50.949Z,75.67
2022-09-28T13:01:35.668Z,75.10
2022-09-28T13:04:22.546Z,75.59
2022-09-28T13:06:58.093Z,75.85
2022-09-28T13:09:30.915Z,77.04
2022-09-28T13:12:11.353Z,77.26
2022-09-28T13:15:00.501Z,77.83
2022-09-28T13:17:39.839Z,77.45
2022-09-28T13:20:16.835Z,77.06
2022-09-28T13:22:50.542Z,77.47
2022-09-28T13:25:21.826Z,76.85
2022-09-28T13:27:53.074Z,76.51
2022-09-28T13:30:21.180Z,77.23
2022-09-28T13:32:49.901Z,77.88
2022-09-28T13:35:19.482Z,78.30
2022-09-28T13:37:48.693Z,79.20
2022-09-28T13:40:16.658Z,79.90
2022-09-28T13:43:00.344Z,79.53
2022-09-28T13:46:03.172Z,79.32
2022-09-28T13:48:36.131Z,79.62
2022-09-28T13:51:16.892Z,79.62
2022-09-28T13:54:12.625Z,79.84
2022-09-28T13:56:46.322Z,79.61
2022-09-28T13:59:20.791Z,79.67
2022-09-28T14:01:55.625Z,79.21
2022-09-28T14:04:26.137Z,78.25
2022-09-28T14:06:57.050Z,78.41
2022-09-28T14:09:42.148Z,78.44
2022-09-28T14:12:28.894Z,79.37
2022-09-28T14:14:58.231Z,79.98
2022-09-28T14:17:59.418Z,80.33
2022-09-28T14:20:28.139Z,80.46
2022-09-28T14:23:19.047Z,81.06
2022-09-28T14:26:14.476Z,81.18
2022-09-28T14:28:53.860Z,80.84
2022-09-28T14:31:26.696Z,79.83
2022-09-28T14:33:57.007Z,78.89
2022-09-28T14:36:41.184Z,79.12
2022-09-28T14:39:38.468Z,79.15
2022-09-28T14:42:12.644Z,79.78
2022-09-28T14:45:18.140Z,79.93
2022-09-28T14:48:05.933Z,79.70
2022-09-28T14:50:34.113Z,79.05
2022-09-28T14:53:06.118Z,78.96
2022-09-28T14:55:41.908Z,78.55
2022-09-28T14:58:17.774Z,78.76
2022-09-28T15:00:46.951Z,79.14
2022-09-28T15:03:17.155Z,78.97
2022-09-28T15:05:48.043Z,79.56
2022-09-28T15:08:18.016Z,80.52
2022-09-28T15:10:47.338Z,81.40
2022-09-28T15:13:21.840Z,82.03
2022-09-28T15:15:53.051Z,81.65
2022-09-28T15:18:47.695Z,81.76
2022-09-28T15:21:16.363Z,81.94
2022-09-28T15:23:45.595Z,82.09
2022-09-28T15:26:23.276Z,82.07
2022-09-28T15:28:51.554Z,81.64
2022-09-28T15:31:22.109Z,81.69
2022-09-28T15:34:09.042Z,81.70
2022-09-28T15:36:39.290Z,82.11
2022-09-28T15:39:12.578Z,82.19
2022-09-28T15:41:48.649Z,82.62
2022-09-28T15:44:29.047Z,82.89
2022-09-28T15:47:07.626Z,83.21
2022-09-28T15:49:42.090Z,82.73
2022-09-28T15:52:24.347Z,82.70
2022-09-28T15:54:53.065Z,82.93
2022-09-28T15:57:34.197Z,82.83
2022-09-28T16:00:02.600Z,82.78
2022-09-28T16:02:30.778Z,82.79
2022-09-28T16:05:01.565Z,82.86
2022-09-28T16:07:38.378Z,83.14
2022-09-28T16:10:33.712Z,83.44
2022-09-28T16:13:15.517Z,83.66
2022-09-28T16:15:43.691Z,83.89
2022-09-28T16:18:23.421Z,84.19
2022-09-28T16:20:52.986Z,84.43
2022-09-28T16:23:26.807Z,84.83
2022-09-28T16:25:59.663Z,85.13
2022-09-28T16:28:51.781Z,85.41
2022-09-28T16:31:34.359Z,85.69
2022-09-28T16:34:11.849Z,85.94
2022-09-28T16:36:45.242Z,86.22
2022-09-28T16:39:14.284Z,86.42
2022-09-28T16:41:45.833Z,86.62
2022-09-28T16:44:17.202Z,86.86
2022-09-28T16:46:45.872Z,87.08
2022-09-28T16:49:18.677Z,87.16
2022-09-28T16:51:47.861Z,87.29
2022-09-28T16:54:35.848Z,87.57
2022-09-28T16:57:06.523Z,87.77
2022-09-28T16:59:34.603Z,88.01
2022-09-28T17:02:02.579Z,88.23
2022-09-28T17:04:30.737Z,88.41
2022-09-28T17:06:59.038Z,88.61
2022-09-28T17:09:27.150Z,88.86
2022-09-28T17:11:57.021Z,89.02
2022-09-28T17:14:26.314Z,89.22
2022-09-28T17:17:14.983Z,89.30
2022-09-28T17:19:42.840Z,89.48
2022-09-28T17:22:10.891Z,89.72
2022-09-28T17:24:38.882Z,89.86
2022-09-28T17:27:07.821Z,89.99
2022-09-28T17:29:37.080Z,90.08
2022-09-28T17:32:08.330Z,90.20
2022-09-28T17:34:36.323Z,90.42
2022-09-28T17:37:04.457Z,90.61
2022-09-28T17:39:32.479Z,90.75
2022-09-28T17:42:00.411Z,90.87
2022-09-28T17:44:28.433Z,90.90
2022-09-28T17:46:57.956Z,91.01
2022-09-28T17:49:25.875Z,91.02
2022-09-28T17:51:54.179Z,91.02
2022-09-28T17:54:22.629Z,91.02
2022-09-28T17:56:50.865Z,90.96
2022-09-28T17:59:19.549Z,90.85
2022-09-28T18:01:48.328Z,90.73
2022-09-28T18:04:47.264Z,90.66
2022-09-28T18:07:06.579Z,90.58
2022-09-28T18:09:34.771Z,90.51
2022-09-28T18:12:05.581Z,90.52
2022-09-28T18:14:33.844Z,90.55
2022-09-28T18:17:02.306Z,90.55
2022-09-28T18:19:32.582Z,90.53
2022-09-28T18:22:01.371Z,90.54
2022-09-28T18:24:29.960Z,90.55
2022-09-28T18:26:58.272Z,90.56
2022-09-28T18:29:28.973Z,90.62
2022-09-28T18:32:00.405Z,90.60
2022-09-28T18:34:28.796Z,90.60
2022-09-28T18:36:58.160Z,90.65
2022-09-28T18:39:26.617Z,90.66
2022-09-28T18:41:54.748Z,90.71
2022-09-28T18:44:23.160Z,90.72
2022-09-28T18:46:51.622Z,90.80
2022-09-28T18:49:21.292Z,90.82
2022-09-28T18:51:49.429Z,90.82
2022-09-28T18:54:18.994Z,90.86
2022-09-28T18:56:47.088Z,90.93
2022-09-28T18:59:15.609Z,90.96
2022-09-28T19:01:43.883Z,90.95
2022-09-28T19:04:13.466Z,91.01
2022-09-28T19:06:44.428Z,91.15
2022-09-28T19:09:13.197Z,91.26
2022-09-28T19:11:42.560Z,91.31
2022-09-28T19:14:14.969Z,91.39
2022-09-28T19:16:43.572Z,91.40
2022-09-28T19:19:12.846Z,91.36
2022-09-28T19:21:40.923Z,91.45
2022-09-28T19:24:10.053Z,91.51
2022-09-28T19:26:38.182Z,91.59
2022-09-28T19:29:07.567Z,91.81
2022-09-28T19:31:35.686Z,92.06
2022-09-28T19:34:04.579Z,92.26
2022-09-28T19:36:32.729Z,92.45
2022-09-28T19:39:02.877Z,92.69
2022-09-28T19:41:44.366Z,92.96
2022-09-28T19:44:19.355Z,93.15
2022-09-28T19:46:47.657Z,93.28
2022-09-28T19:49:19.350Z,93.41
2022-09-28T19:52:11.042Z,93.59
2022-09-28T19:54:38.117Z,93.78
2022-09-28T19:57:07.743Z,93.89
2022-09-28T19:59:38.124Z,93.95
2022-09-28T20:02:07.299Z,94.06
2022-09-28T20:04:35.491Z,94.12
2022-09-28T20:07:03.705Z,94.14
2022-09-28T20:09:32.423Z,94.26
2022-09-28T20:12:00.456Z,94.28
2022-09-28T20:14:33.103Z,94.31
2022-09-28T20:17:07.217Z,94.36
2022-09-28T20:19:35.344Z,94.38
2022-09-28T20:22:03.604Z,94.41
2022-09-28T20:24:32.160Z,94.33
2022-09-28T20:27:01.467Z,94.37
2022-09-28T20:29:31.583Z,94.42
2022-09-28T20:32:00.393Z,94.47
2022-09-28T20:34:29.741Z,94.57
2022-09-28T20:36:57.731Z,94.72
2022-09-28T20:39:25.916Z,94.90
2022-09-28T20:41:56.300Z,94.97
2022-09-28T20:44:24.237Z,95.03
2022-09-28T20:46:52.574Z,95.02
2022-09-28T20:49:20.544Z,95.09
2022-09-28T20:51:49.951Z,95.14
2022-09-28T20:54:18.030Z,95.14
2022-09-28T20:56:48.085Z,95.17
2022-09-28T20:59:16.418Z,95.20
2022-09-28T21:01:44.678Z,95.23
2022-09-28T21:04:12.819Z,95.24
2022-09-28T21:06:42.877Z,95.26
2022-09-28T21:09:19.046Z,95.27
2022-09-28T21:11:48.139Z,95.23
2022-09-28T21:14:16.190Z,95.25
2022-09-28T21:16:44.224Z,95.24
2022-09-28T21:19:12.794Z,95.25
2022-09-28T21:21:40.752Z,95.26
2022-09-28T21:24:09.201Z,95.28
2022-09-28T21:26:41.722Z,95.34
2022-09-28T21:29:12.784Z,95.34
2022-09-28T21:31:42.353Z,95.33
2022-09-28T21:34:13.181Z,95.32
2022-09-28T21:36:41.299Z,95.25
2022-09-28T21:39:10.496Z,95.23
2022-09-28T21:44:32.851Z,95.29
2022-09-28T21:47:00.936Z,95.22
2022-09-28T21:49:28.940Z,95.24
2022-09-28T21:51:57.032Z,95.18
2022-09-28T21:54:25.126Z,95.14
2022-09-28T21:56:54.563Z,95.07
2022-09-28T21:59:22.592Z,94.99
2022-09-28T22:01:50.757Z,94.97
2022-09-28T22:04:18.971Z,94.93
2022-09-28T22:06:47.085Z,94.89
2022-09-28T22:09:15.269Z,94.94
2022-09-28T22:11:43.412Z,94.88
2022-09-28T22:14:12.872Z,94.83
2022-09-28T22:16:41.197Z,94.80
2022-09-28T22:19:09.283Z,94.78
2022-09-28T22:21:37.340Z,94.84
2022-09-28T22:24:07.108Z,94.87
2022-09-28T22:26:36.367Z,94.87
2022-09-28T22:29:06.345Z,94.93
2022-09-28T22:31:37.302Z,94.98
2022-09-28T22:34:06.008Z,95.12
2022-09-28T22:36:34.304Z,95.20
2022-09-28T22:39:02.313Z,95.33
2022-09-28T22:41:30.405Z,95.42
2022-09-28T22:43:58.960Z,95.43
2022-09-28T22:46:28.360Z,95.55
2022-09-28T22:48:59.093Z,95.64
2022-09-28T22:51:28.513Z,95.66
2022-09-28T22:53:56.906Z,95.71
2022-09-28T22:56:25.532Z,95.79
2022-09-28T22:58:53.826Z,95.83
2022-09-28T23:01:23.260Z,95.84
2022-09-28T23:03:51.884Z,95.84
2022-09-28T23:06:22.523Z,95.86
2022-09-28T23:08:52.911Z,95.88
2022-09-28T23:11:21.280Z,95.91
2022-09-28T23:13:50.481Z,95.95
2022-09-28T23:16:18.915Z,95.95
2022-09-28T23:18:48.875Z,95.96
2022-09-28T23:21:18.651Z,95.95
2022-09-28T23:23:52.596Z,95.94
2022-09-28T23:26:22.163Z,95.93
2022-09-28T23:28:50.404Z,95.94
2022-09-28T23:31:20.061Z,95.94
2022-09-28T23:33:48.426Z,95.98
2022-09-28T23:36:17.561Z,95.97
2022-09-28T23:38:45.559Z,95.96
2022-09-28T23:41:14.851Z,95.95
2022-09-28T23:43:42.769Z,95.91
2022-09-28T23:46:10.770Z,95.98
2022-09-28T23:48:38.791Z,95.97
2022-09-28T23:51:07.877Z,95.99
2022-09-28T23:53:35.867Z,96.00
2022-09-28T23:56:04.167Z,96.01
2022-09-28T23:58:33.419Z,96.07
